createdAt,value
2022-10-31T00:01:36.780Z,95.04
2022-10-31T00:04:05.343Z,94.95
2022-10-31T00:06:33.409Z,94.91
2022-10-31T00:09:03.313Z,95.33
2022-10-31T00:11:31.891Z,95.16
2022-10-31T00:14:01.463Z,95.51
2022-10-31T00:16:30.705Z,95.24
2022-10-31T00:19:00.840Z,95.43
2022-10-31T00:21:29.636Z,95.52
2022-10-31T00:23:57.526Z,95.83
2022-10-31T00:26:25.609Z,96.04
2022-10-31T00:28:53.483Z,96.30
2022-10-31T00:31:22.888Z,96.46
2022-10-31T00:33:51.021Z,96.75
2022-10-31T00:36:20.352Z,96.92
2022-10-31T00:38:49.363Z,97.43
2022-10-31T00:41:19.359Z,97.36
2022-10-31T00:43:47.249Z,97.31
2022-10-31T00:46:15.515Z,97.77
2022-10-31T00:48:45.047Z,98.15
2022-10-31T00:51:12.960Z,98.10
2022-10-31T00:53:40.890Z,98.17
2022-10-31T00:56:09.104Z,98.11
2022-10-31T00:58:36.936Z,98.38
2022-10-31T01:01:05.908Z,98.74
2022-10-31T01:03:35.786Z,98.96
2022-10-31T01:06:08.244Z,99.54
2022-10-31T01:08:36.845Z,99.49
2022-10-31T01:11:08.451Z,99.62
2022-10-31T01:13:37.122Z,99.65
2022-10-31T01:16:07.393Z,100.00
2022-10-31T01:18:37.452Z,100.00
2022-10-31T01:21:09.605Z,100.00
2022-10-31T01:23:38.094Z,100.00
2022-10-31T01:26:09.812Z,100.00
2022-10-31T01:28:39.936Z,100.00
2022-10-31T01:31:10.464Z,100.00
2022-10-31T01:33:39.216Z,100.00
2022-10-31T01:36:16.842Z,100.00
2022-10-31T01:38:44.828Z,100.00
2022-10-31T01:41:14.499Z,99.94
2022-10-31T01:43:51.596Z,100.00
2022-10-31T01:46:24.140Z,100.00
2022-10-31T01:48:53.279Z,100.00
2022-10-31T01:51:27.748Z,100.00
2022-10-31T01:53:59.084Z,100.00
2022-10-31T01:56:27.845Z,100.00
2022-10-31T01:58:58.476Z,100.00
2022-10-31T02:01:27.164Z,100.00
2022-10-31T02:03:56.950Z,100.00
2022-10-31T02:06:35.366Z,100.00
2022-10-31T02:09:05.570Z,100.00
2022-10-31T02:11:35.072Z,100.00
2022-10-31T02:14:04.778Z,100.00
2022-10-31T02:16:32.694Z,100.00
2022-10-31T02:19:00.666Z,100.00
2022-10-31T02:21:40.204Z,100.00
2022-10-31T02:24:41.482Z,100.00
2022-10-31T02:27:17.628Z,100.00
2022-10-31T02:30:03.195Z,100.00
2022-10-31T02:32:40.626Z,100.00
2022-10-31T02:35:15.710Z,100.00
2022-10-31T02:37:51.304Z,100.00
2022-10-31T02:40:25.391Z,100.00
2022-10-31T02:43:01.926Z,100.00
2022-10-31T02:45:33.839Z,100.00
2022-10-31T02:48:12.021Z,100.00
2022-10-31T02:50:43.879Z,100.00
2022-10-31T02:53:11.764Z,100.00
2022-10-31T02:55:52.539Z,100.00
2022-10-31T02:58:26.568Z,100.00
2022-10-31T03:01:12.081Z,100.00
2022-10-31T03:03:55.016Z,100.00
2022-10-31T03:06:30.573Z,100.00
2022-10-31T03:09:05.559Z,100.00
2022-10-31T03:11:44.476Z,100.00
2022-10-31T03:14:17.100Z,100.00
2022-10-31T03:16:49.055Z,100.00
2022-10-31T03:19:21.739Z,100.00
2022-10-31T03:21:55.300Z,100.00
2022-10-31T03:24:26.708Z,100.00
2022-10-31T03:26:59.800Z,100.00
2022-10-31T03:29:31.419Z,100.00
2022-10-31T03:32:03.972Z,100.00
2022-10-31T03:34:36.826Z,100.00
2022-10-31T03:37:12.737Z,100.00
2022-10-31T03:39:43.271Z,100.00
2022-10-31T03:42:15.063Z,100.00
2022-10-31T03:44:48.084Z,100.00
2022-10-31T03:47:16.882Z,100.00
2022-10-31T03:49:46.398Z,100.00
2022-10-31T03:52:22.685Z,100.00
2022-10-31T03:54:56.899Z,100.00
2022-10-31T03:57:30.223Z,100.00
2022-10-31T04:00:03.475Z,100.00
2022-10-31T04:02:35.169Z,100.00
2022-10-31T04:05:06.209Z,100.00
2022-10-31T04:07:38.975Z,100.00
2022-10-31T04:10:11.344Z,100.00
2022-10-31T04:12:41.907Z,100.00
2022-10-31T04:15:11.676Z,100.00
2022-10-31T04:17:44.904Z,100.00
2022-10-31T04:20:18.213Z,100.00
2022-10-31T04:22:46.577Z,100.00
2022-10-31T04:25:14.531Z,100.00
2022-10-31T04:27:42.367Z,100.00
2022-10-31T04:30:11.294Z,100.00
2022-10-31T04:32:39.160Z,100.00
2022-10-31T04:35:07.901Z,100.00
2022-10-31T04:37:37.275Z,100.00
2022-10-31T04:40:06.706Z,100.00
2022-10-31T04:42:34.740Z,100.00
2022-10-31T04:45:02.764Z,100.00
2022-10-31T04:47:33.305Z,100.00
2022-10-31T04:50:01.401Z,100.00
2022-10-31T04:52:29.592Z,100.00
2022-10-31T04:54:58.791Z,100.00
2022-10-31T04:57:26.666Z,100.00
2022-10-31T04:59:54.976Z,100.00
2022-10-31T05:02:22.846Z,100.00
2022-10-31T05:04:50.701Z,100.00
2022-10-31T05:07:18.780Z,100.00
2022-10-31T05:09:46.712Z,100.00
2022-10-31T05:12:15.913Z,100.00
2022-10-31T05:14:46.175Z,100.00
2022-10-31T05:17:16.388Z,100.00
2022-10-31T05:19:44.288Z,100.00
2022-10-31T05:22:12.227Z,100.00
2022-10-31T05:24:40.049Z,100.00
2022-10-31T05:27:07.996Z,100.00
2022-10-31T05:29:37.256Z,100.00
2022-10-31T05:32:05.232Z,100.00
2022-10-31T05:34:33.249Z,100.00
2022-10-31T05:37:01.232Z,100.00
2022-10-31T05:39:29.181Z,100.00
2022-10-31T05:41:57.115Z,100.00
2022-10-31T05:44:25.040Z,100.00
2022-10-31T05:46:54.328Z,100.00
2022-10-31T05:49:23.888Z,100.00
2022-10-31T05:51:51.745Z,100.00
2022-10-31T05:54:19.699Z,100.00
2022-10-31T05:56:48.103Z,100.00
2022-10-31T05:59:15.994Z,100.00
2022-10-31T06:01:44.197Z,100.00
2022-10-31T06:04:13.673Z,100.00
2022-10-31T06:06:41.558Z,100.00
2022-10-31T06:09:09.469Z,100.00
2022-10-31T06:11:37.420Z,100.00
2022-10-31T06:14:05.515Z,100.00
2022-10-31T06:16:33.456Z,100.00
2022-10-31T06:19:01.439Z,100.00
2022-10-31T06:21:30.767Z,100.00
2022-10-31T06:23:58.933Z,100.00
2022-10-31T06:26:26.912Z,100.00
2022-10-31T06:28:56.855Z,100.00
2022-10-31T06:31:26.645Z,100.00
2022-10-31T06:33:54.712Z,100.00
2022-10-31T06:36:22.550Z,100.00
2022-10-31T06:38:51.891Z,100.00
2022-10-31T06:41:19.906Z,100.00
2022-10-31T06:43:48.592Z,100.00
2022-10-31T06:46:16.642Z,100.00
2022-10-31T06:48:44.659Z,100.00
2022-10-31T06:51:12.627Z,100.00
2022-10-31T06:53:40.668Z,100.00
2022-10-31T06:56:10.311Z,100.00
2022-10-31T06:58:38.170Z,100.00
2022-10-31T07:01:06.172Z,100.00
2022-10-31T07:03:34.455Z,100.00
2022-10-31T07:06:02.355Z,100.00
2022-10-31T07:08:30.331Z,100.00
2022-10-31T07:10:59.655Z,100.00
2022-10-31T07:13:28.926Z,100.00
2022-10-31T07:16:02.985Z,100.00
2022-10-31T07:18:31.097Z,100.00
2022-10-31T07:20:59.050Z,100.00
2022-10-31T07:23:26.984Z,100.00
2022-10-31T07:25:57.839Z,100.00
2022-10-31T07:28:26.512Z,100.00
2022-10-31T07:30:57.508Z,100.00
2022-10-31T07:33:27.035Z,100.00
2022-10-31T07:35:55.363Z,100.00
2022-10-31T07:38:23.343Z,100.00
2022-10-31T07:40:53.867Z,100.00
2022-10-31T07:43:22.138Z,100.00
2022-10-31T07:45:54.143Z,100.00
2022-10-31T07:48:23.731Z,100.00
2022-10-31T07:50:51.523Z,100.00
2022-10-31T07:53:19.527Z,100.00
2022-10-31T07:55:47.400Z,100.00
2022-10-31T07:58:17.850Z,100.00
2022-10-31T08:00:47.545Z,100.00
2022-10-31T08:03:17.995Z,100.00
2022-10-31T08:05:48.272Z,100.00
2022-10-31T08:08:17.567Z,100.00
2022-10-31T08:10:45.551Z,100.00
2022-10-31T08:13:15.385Z,100.00
2022-10-31T08:15:43.628Z,100.00
2022-10-31T08:18:14.343Z,100.00
2022-10-31T08:20:42.591Z,100.00
2022-10-31T08:23:13.456Z,100.00
2022-10-31T08:25:42.881Z,100.00
2022-10-31T08:28:12.768Z,100.00
2022-10-31T08:30:41.966Z,100.00
2022-10-31T08:33:13.134Z,100.00
2022-10-31T08:35:41.693Z,100.00
2022-10-31T08:38:13.007Z,100.00
2022-10-31T08:40:41.139Z,100.00
2022-10-31T08:43:13.692Z,100.00
2022-10-31T08:45:41.890Z,100.00
2022-10-31T08:48:12.980Z,100.00
2022-10-31T08:50:41.062Z,100.00
2022-10-31T08:53:16.268Z,100.00
2022-10-31T08:55:45.213Z,100.00
2022-10-31T08:58:15.351Z,100.00
2022-10-31T09:00:43.804Z,100.00
2022-10-31T09:03:14.181Z,100.00
2022-10-31T09:05:42.819Z,100.00
2022-10-31T09:08:15.949Z,100.00
2022-10-31T09:10:46.787Z,100.00
2022-10-31T09:13:16.695Z,100.00
2022-10-31T09:15:46.469Z,100.00
2022-10-31T09:18:16.077Z,100.00
2022-10-31T09:20:45.470Z,100.00
2022-10-31T09:23:15.720Z,100.00
2022-10-31T09:25:49.302Z,100.00
2022-10-31T09:28:21.228Z,100.00
2022-10-31T09:30:50.163Z,100.00
2022-10-31T09:33:18.581Z,100.00
2022-10-31T09:35:47.055Z,100.00
2022-10-31T09:38:16.848Z,100.00
2022-10-31T09:40:46.540Z,100.00
2022-10-31T09:43:20.633Z,100.00
2022-10-31T09:45:58.579Z,100.00
2022-10-31T09:48:46.880Z,100.00
2022-10-31T09:51:19.149Z,100.00
2022-10-31T09:53:51.579Z,100.00
2022-10-31T09:56:22.060Z,100.00
2022-10-31T09:58:54.983Z,100.00
2022-10-31T10:01:36.216Z,100.00
2022-10-31T10:04:15.630Z,100.00
2022-10-31T10:06:48.846Z,100.00
2022-10-31T10:09:17.005Z,100.00
2022-10-31T10:11:57.045Z,100.00
2022-10-31T10:14:42.723Z,100.00
2022-10-31T10:17:30.368Z,100.00
2022-10-31T10:20:12.824Z,100.00
2022-10-31T10:22:51.451Z,100.00
2022-10-31T10:25:24.458Z,100.00
2022-10-31T10:28:09.167Z,100.00
2022-10-31T10:30:43.889Z,100.00
2022-10-31T10:33:16.484Z,100.00
2022-10-31T10:35:49.486Z,100.00
2022-10-31T10:38:23.842Z,100.00
2022-10-31T10:40:54.301Z,100.00
2022-10-31T10:43:25.383Z,100.00
2022-10-31T10:46:25.430Z,100.00
2022-10-31T10:48:59.387Z,100.00
2022-10-31T10:54:56.660Z,100.00
2022-10-31T10:57:34.897Z,100.00
2022-10-31T11:00:17.997Z,100.00
2022-10-31T11:02:48.880Z,100.00
2022-10-31T11:05:25.627Z,100.00
2022-10-31T11:07:53.905Z,100.00
2022-10-31T11:10:21.976Z,100.00
2022-10-31T11:13:03.524Z,100.00
2022-10-31T11:15:36.132Z,100.00
2022-10-31T11:18:04.355Z,100.00
2022-10-31T11:20:36.829Z,100.00
2022-10-31T11:23:08.352Z,100.00
2022-10-31T11:25:36.333Z,100.00
2022-10-31T11:28:06.339Z,100.00
2022-10-31T11:30:47.863Z,100.00
2022-10-31T11:33:21.516Z,100.00
2022-10-31T11:35:55.022Z,100.00
2022-10-31T11:38:29.077Z,100.00
2022-10-31T11:41:00.661Z,100.00
2022-10-31T11:43:29.347Z,100.00
2022-10-31T11:45:58.420Z,100.00
2022-10-31T11:48:27.735Z,100.00
2022-10-31T11:50:59.470Z,100.00
2022-10-31T11:53:30.480Z,100.00
2022-10-31T11:56:12.399Z,100.00
2022-10-31T11:58:40.549Z,100.00
2022-10-31T12:01:08.448Z,100.00
2022-10-31T12:03:45.897Z,100.00
2022-10-31T12:06:20.687Z,100.00
2022-10-31T12:08:48.826Z,100.00
2022-10-31T12:11:45.049Z,100.00
2022-10-31T12:14:25.800Z,100.00
2022-10-31T12:16:59.099Z,100.00
2022-10-31T12:19:38.416Z,100.00
2022-10-31T12:22:22.522Z,100.00
2022-10-31T12:25:10.028Z,100.00
2022-10-31T12:27:50.776Z,100.00
2022-10-31T12:30:22.660Z,100.00
2022-10-31T12:33:22.570Z,100.00
2022-10-31T12:36:00.156Z,100.00
2022-10-31T12:38:47.271Z,100.00
2022-10-31T12:41:29.228Z,100.00
2022-10-31T12:44:02.876Z,100.00
2022-10-31T12:46:45.656Z,100.00
2022-10-31T12:49:34.611Z,100.00
2022-10-31T12:52:21.719Z,100.00
2022-10-31T12:55:12.851Z,100.00
2022-10-31T12:57:46.489Z,100.00
2022-10-31T13:00:17.951Z,100.00
2022-10-31T13:02:51.846Z,100.00
2022-10-31T13:05:26.211Z,100.00
2022-10-31T13:07:59.974Z,100.00
2022-10-31T13:10:34.193Z,100.00
2022-10-31T13:13:08.371Z,100.00
2022-10-31T13:15:48.398Z,100.00
2022-10-31T13:18:34.244Z,100.00
2022-10-31T13:21:07.150Z,100.00
2022-10-31T13:23:50.417Z,100.00
2022-10-31T13:26:25.971Z,100.00
2022-10-31T13:29:01.296Z,100.00
2022-10-31T13:31:29.596Z,100.00
2022-10-31T13:34:01.601Z,100.00
2022-10-31T13:36:36.699Z,100.00
2022-10-31T13:39:13.688Z,100.00
2022-10-31T13:41:47.762Z,100.00
2022-10-31T13:44:19.725Z,100.00
2022-10-31T13:46:48.023Z,100.00
2022-10-31T13:49:29.000Z,100.00
2022-10-31T13:52:08.357Z,100.00
2022-10-31T13:54:38.334Z,100.00
2022-10-31T13:57:19.108Z,100.00
2022-10-31T13:59:51.649Z,100.00
2022-10-31T14:02:28.474Z,100.00
2022-10-31T14:05:01.010Z,100.00
2022-10-31T14:07:30.692Z,100.00
2022-10-31T14:10:03.544Z,100.00
2022-10-31T14:12:37.599Z,100.00
2022-10-31T14:15:22.571Z,100.00
2022-10-31T14:17:53.830Z,100.00
2022-10-31T14:20:36.286Z,100.00
2022-10-31T14:23:15.503Z,100.00
2022-10-31T14:25:43.695Z,100.00
2022-10-31T14:28:24.389Z,100.00
2022-10-31T14:30:56.877Z,100.00
2022-10-31T14:33:28.167Z,100.00
2022-10-31T14:36:01.927Z,100.00
2022-10-31T14:38:49.895Z,100.00
2022-10-31T14:41:50.512Z,100.00
2022-10-31T14:44:40.903Z,100.00
2022-10-31T14:47:19.186Z,100.00
2022-10-31T14:50:04.148Z,100.00
2022-10-31T14:52:32.781Z,100.00
2022-10-31T14:55:02.798Z,100.00
2022-10-31T14:57:34.632Z,100.00
2022-10-31T15:00:09.125Z,100.00
2022-10-31T15:02:48.699Z,100.00
2022-10-31T15:05:17.480Z,100.00
2022-10-31T15:07:52.970Z,100.00
2022-10-31T15:10:26.386Z,100.00
2022-10-31T15:12:55.127Z,100.00
2022-10-31T15:15:26.766Z,100.00
2022-10-31T15:17:57.614Z,100.00
2022-10-31T15:20:29.455Z,100.00
2022-10-31T15:22:59.464Z,100.00
2022-10-31T15:25:30.630Z,100.00
2022-10-31T15:27:58.690Z,100.00
2022-10-31T15:30:30.699Z,100.00
2022-10-31T15:32:59.354Z,100.00
2022-10-31T15:35:29.374Z,100.00
2022-10-31T15:37:59.766Z,100.00
2022-10-31T15:40:29.269Z,100.00
2022-10-31T15:42:59.987Z,100.00
2022-10-31T15:45:31.642Z,100.00
2022-10-31T15:48:02.202Z,100.00
2022-10-31T15:50:35.627Z,100.00
2022-10-31T15:53:05.318Z,100.00
2022-10-31T15:55:39.411Z,100.00
2022-10-31T15:58:15.092Z,100.00
2022-10-31T16:00:44.708Z,100.00
2022-10-31T16:03:27.992Z,100.00
2022-10-31T16:05:57.934Z,100.00
2022-10-31T16:08:28.880Z,100.00
2022-10-31T16:10:57.320Z,100.00
2022-10-31T16:13:29.053Z,100.00
2022-10-31T16:16:28.735Z,100.00
2022-10-31T16:18:50.643Z,100.00
2022-10-31T16:21:26.574Z,100.00
2022-10-31T16:24:02.711Z,100.00
2022-10-31T16:26:33.307Z,100.00
2022-10-31T16:29:08.497Z,100.00
2022-10-31T16:31:41.143Z,100.00
2022-10-31T16:34:20.155Z,100.00
2022-10-31T16:36:50.466Z,100.00
2022-10-31T16:39:18.938Z,100.00
2022-10-31T16:41:50.333Z,100.00
2022-10-31T16:44:21.782Z,100.00
2022-10-31T16:47:10.302Z,100.00
2022-10-31T16:49:38.249Z,100.00
2022-10-31T16:52:06.487Z,100.00
2022-10-31T16:54:34.551Z,100.00
2022-10-31T16:57:04.593Z,100.00
2022-10-31T16:59:34.300Z,100.00
2022-10-31T17:02:06.149Z,100.00
2022-10-31T17:04:34.086Z,100.00
2022-10-31T17:07:01.943Z,100.00
2022-10-31T17:09:29.990Z,100.00
2022-10-31T17:11:58.069Z,100.00
2022-10-31T17:14:26.203Z,100.00
2022-10-31T17:16:56.869Z,100.00
2022-10-31T17:19:26.148Z,100.00
2022-10-31T17:21:54.024Z,100.00
2022-10-31T17:24:22.152Z,100.00
2022-10-31T17:26:50.007Z,100.00
2022-10-31T17:29:18.478Z,100.00
2022-10-31T17:31:46.761Z,100.00
2022-10-31T17:34:14.629Z,100.00
2022-10-31T17:36:43.874Z,100.00
2022-10-31T17:39:12.353Z,100.00
2022-10-31T17:41:40.220Z,100.00
2022-10-31T17:44:08.109Z,100.00
2022-10-31T17:46:36.365Z,100.00
2022-10-31T17:49:05.267Z,100.00
2022-10-31T17:51:33.691Z,100.00
2022-10-31T17:54:03.095Z,100.00
2022-10-31T17:56:30.947Z,100.00
2022-10-31T17:58:59.081Z,100.00
2022-10-31T18:01:27.412Z,100.00
2022-10-31T18:03:55.340Z,100.00
2022-10-31T18:06:23.202Z,100.00
2022-10-31T18:08:51.193Z,100.00
2022-10-31T18:11:22.867Z,100.00
2022-10-31T18:13:56.360Z,100.00
2022-10-31T18:16:24.824Z,100.00
2022-10-31T18:18:53.845Z,100.00
2022-10-31T18:21:22.386Z,100.00
2022-10-31T18:23:55.380Z,100.00
2022-10-31T18:26:26.087Z,100.00
2022-10-31T18:28:54.874Z,100.00
2022-10-31T18:31:22.829Z,100.00
2022-10-31T18:33:53.889Z,100.00
2022-10-31T18:36:22.443Z,100.00
2022-10-31T18:38:50.306Z,100.00
2022-10-31T18:41:18.614Z,100.00
2022-10-31T18:43:47.840Z,100.00
2022-10-31T18:46:18.059Z,100.00
2022-10-31T18:48:46.575Z,100.00
2022-10-31T18:51:18.290Z,100.00
2022-10-31T18:53:52.255Z,100.00
2022-10-31T18:56:20.743Z,100.00
2022-10-31T18:58:50.241Z,100.00
2022-10-31T19:01:19.809Z,100.00
2022-10-31T19:03:52.929Z,100.00
2022-10-31T19:06:20.956Z,100.00
2022-10-31T19:08:48.924Z,100.00
2022-10-31T19:11:17.051Z,100.00
2022-10-31T19:13:45.094Z,100.00
2022-10-31T19:16:16.763Z,100.00
2022-10-31T19:18:45.935Z,100.00
2022-10-31T19:21:16.465Z,100.00
2022-10-31T19:23:45.440Z,100.00
2022-10-31T19:26:14.135Z,100.00
2022-10-31T19:28:42.790Z,100.00
2022-10-31T19:31:11.456Z,100.00
2022-10-31T19:33:40.974Z,100.00
2022-10-31T19:36:11.821Z,100.00
2022-10-31T19:38:41.853Z,100.00
2022-10-31T19:41:13.387Z,100.00
2022-10-31T19:43:41.788Z,100.00
2022-10-31T19:46:21.990Z,100.00
2022-10-31T19:48:57.351Z,100.00
2022-10-31T19:51:25.479Z,100.00
2022-10-31T19:53:53.418Z,100.00
2022-10-31T19:56:22.943Z,100.00
2022-10-31T19:58:51.109Z,100.00
2022-10-31T20:01:21.413Z,100.00
2022-10-31T20:03:50.609Z,100.00
2022-10-31T20:06:24.688Z,100.00
2022-10-31T20:08:53.468Z,100.00
2022-10-31T20:11:21.703Z,100.00
2022-10-31T20:13:50.204Z,100.00
2022-10-31T20:16:18.938Z,100.00
2022-10-31T20:18:47.061Z,100.00
2022-10-31T20:21:17.533Z,100.00
2022-10-31T20:23:47.555Z,100.00
2022-10-31T20:26:19.486Z,100.00
2022-10-31T20:28:47.775Z,100.00
2022-10-31T20:31:23.044Z,100.00
2022-10-31T20:33:51.165Z,100.00
2022-10-31T20:36:21.078Z,100.00
2022-10-31T20:38:51.676Z,100.00
2022-10-31T20:41:20.065Z,100.00
2022-10-31T20:43:48.365Z,100.00
2022-10-31T20:46:18.000Z,100.00
2022-10-31T20:48:46.509Z,100.00
2022-10-31T20:53:58.246Z,100.00
2022-10-31T20:56:30.152Z,100.00
2022-10-31T20:59:02.374Z,100.00
2022-10-31T21:01:34.359Z,100.00
2022-10-31T21:04:04.143Z,100.00
2022-10-31T21:06:32.887Z,100.00
2022-10-31T21:09:03.462Z,100.00
2022-10-31T21:11:37.768Z,100.00
2022-10-31T21:14:06.158Z,100.00
2022-10-31T21:16:36.359Z,100.00
2022-10-31T21:19:10.048Z,100.00
2022-10-31T21:21:41.084Z,100.00
2022-10-31T21:26:48.365Z,100.00
2022-10-31T21:29:20.096Z,100.00
2022-10-31T21:31:49.309Z,100.00
2022-10-31T21:34:17.970Z,100.00
2022-10-31T21:36:46.775Z,100.00
2022-10-31T21:39:16.469Z,100.00
2022-10-31T21:41:45.176Z,100.00
2022-10-31T21:44:13.529Z,100.00
2022-10-31T21:46:42.196Z,100.00
2022-10-31T21:49:12.381Z,100.00
2022-10-31T21:51:44.558Z,100.00
2022-10-31T21:54:28.755Z,100.00
2022-10-31T21:56:57.908Z,100.00
2022-10-31T21:59:26.603Z,100.00
2022-10-31T22:02:02.407Z,100.00
2022-10-31T22:04:30.832Z,100.00
2022-10-31T22:06:59.142Z,100.00
2022-10-31T22:09:32.095Z,100.00
2022-10-31T22:12:01.572Z,100.00
2022-10-31T22:14:29.856Z,100.00
2022-10-31T22:16:57.873Z,100.00
2022-10-31T22:19:26.118Z,100.00
2022-10-31T22:21:54.017Z,100.00
2022-10-31T22:24:22.186Z,100.00
2022-10-31T22:26:51.686Z,100.00
2022-10-31T22:29:21.517Z,100.00
2022-10-31T22:31:55.152Z,100.00
2022-10-31T22:34:26.781Z,100.00
2022-10-31T22:36:55.769Z,100.00
2022-10-31T22:39:23.601Z,100.00
2022-10-31T22:41:53.113Z,100.00
2022-10-31T22:44:21.341Z,100.00
2022-10-31T22:46:49.343Z,100.00
2022-10-31T22:49:17.472Z,100.00
2022-10-31T22:51:46.193Z,100.00
2022-10-31T22:54:16.517Z,100.00
2022-10-31T22:56:45.240Z,100.00
2022-10-31T22:59:16.865Z,100.00
2022-10-31T23:01:46.133Z,100.00
2022-10-31T23:04:14.843Z,100.00
2022-10-31T23:06:43.569Z,100.00
2022-10-31T23:09:15.776Z,100.00
2022-10-31T23:11:44.408Z,100.00
2022-10-31T23:14:17.283Z,100.00
2022-10-31T23:16:50.356Z,100.00
2022-10-31T23:19:23.779Z,100.00
2022-10-31T23:21:57.782Z,100.00
2022-10-31T23:24:28.746Z,100.00
2022-10-31T23:27:10.315Z,100.00
2022-10-31T23:29:43.338Z,100.00
2022-10-31T23:32:14.831Z,100.00
2022-10-31T23:34:43.005Z,100.00
2022-10-31T23:37:12.354Z,100.00
2022-10-31T23:39:43.726Z,100.00
2022-10-31T23:42:13.873Z,100.00
2022-10-31T23:44:43.548Z,100.00
2022-10-31T23:47:11.833Z,100.00
2022-10-31T23:49:40.430Z,100.00
2022-10-31T23:52:09.335Z,100.00
2022-10-31T23:54:37.964Z,100.00
2022-10-31T23:57:09.490Z,100.00
2022-10-31T23:59:38.476Z,100.00
